Time;durP1;ratioP1;P1;durP2;ratioP2;P2;SDS_P1;SDS_P2;PMS_P1;PMS_P2;Temp;Humidity;BMP_temperature;BMP_pressure;BME280_temperature;BME280_humidity;BME280_pressure;Samples;Min_cycle;Max_cycle;Signal;HPM_P1;HPM_P2
2023/04/10 00:00:56;;;;;;;13.95;10.40;;;11.60;99.90;;;;;;5117092;28;20078;-62
2023/04/10 00:03:23;;;;;;;12.10;10.20;;;11.50;99.90;;;;;;5095929;28;20440;-61
2023/04/10 00:05:53;;;;;;;12.65;10.95;;;11.60;99.90;;;;;;5096041;28;20040;-63
2023/04/10 00:08:20;;;;;;;13.23;11.27;;;11.50;99.90;;;;;;5112294;28;20504;-62
2023/04/10 00:10:46;;;;;;;13.25;11.15;;;11.50;99.90;;;;;;5116859;28;20059;-62
2023/04/10 00:13:13;;;;;;;14.23;11.05;;;11.50;99.90;;;;;;5116509;28;20145;-62
2023/04/10 00:15:40;;;;;;;15.15;11.10;;;11.50;99.90;;;;;;5116078;28;20135;-62
2023/04/10 00:18:07;;;;;;;14.30;10.68;;;11.50;99.90;;;;;;5115200;28;20043;-62
2023/04/10 00:20:34;;;;;;;13.63;11.27;;;11.50;99.90;;;;;;5116667;28;20055;-62
2023/04/10 00:23:00;;;;;;;12.20;10.65;;;11.50;99.90;;;;;;5101882;28;20340;-62
2023/04/10 00:25:27;;;;;;;14.35;10.88;;;11.50;99.90;;;;;;5096375;28;20040;-62
2023/04/10 00:27:54;;;;;;;13.18;11.25;;;11.50;99.90;;;;;;5107976;28;20039;-62
2023/04/10 00:30:21;;;;;;;14.30;11.40;;;11.50;99.90;;;;;;5114887;28;20047;-62
2023/04/10 00:32:47;;;;;;;13.77;10.88;;;11.50;99.90;;;;;;5104296;28;20364;-62
2023/04/10 00:35:14;;;;;;;16.05;10.95;;;11.50;99.90;;;;;;5096429;28;20044;-62
2023/04/10 00:37:41;;;;;;;14.80;10.90;;;11.50;99.90;;;;;;5100087;28;20040;-62
2023/04/10 00:40:08;;;;;;;17.92;10.73;;;11.60;99.90;;;;;;5113380;28;20494;-61
2023/04/10 00:42:35;;;;;;;12.52;10.73;;;11.60;99.90;;;;;;5115729;28;20038;-62
2023/04/10 00:45:02;;;;;;;12.85;10.35;;;11.60;99.90;;;;;;5106250;28;20062;-61
2023/04/10 00:47:29;;;;;;;15.15;11.05;;;11.70;99.90;;;;;;5095381;28;20483;-61
2023/04/10 00:49:56;;;;;;;11.73;10.25;;;11.70;99.90;;;;;;5095997;28;20048;-61
2023/04/10 00:52:23;;;;;;;10.30;9.25;;;11.70;99.90;;;;;;5104804;28;20042;-60
2023/04/10 00:54:49;;;;;;;14.23;10.45;;;11.70;99.90;;;;;;5114832;28;20044;-62
2023/04/10 00:57:16;;;;;;;10.57;9.32;;;11.80;99.90;;;;;;5114146;28;20051;-62
2023/04/10 00:59:43;;;;;;;11.90;9.57;;;11.80;99.90;;;;;;5106119;28;20124;-61
2023/04/10 01:02:11;;;;;;;13.02;10.20;;;11.80;99.90;;;;;;5093984;28;20483;-61
2023/04/10 01:04:39;;;;;;;11.20;9.57;;;11.80;99.90;;;;;;5095444;28;20101;-62
2023/04/10 01:07:06;;;;;;;12.73;10.18;;;11.90;99.90;;;;;;5094888;28;20044;-60
2023/04/10 01:09:33;;;;;;;11.07;9.88;;;11.90;99.90;;;;;;5093998;28;20517;-62
2023/04/10 01:12:01;;;;;;;12.00;9.40;;;11.90;99.90;;;;;;5095408;28;20126;-62
2023/04/10 01:14:27;;;;;;;13.38;9.50;;;12.00;99.90;;;;;;5093920;28;20089;-61
2023/04/10 01:16:54;;;;;;;13.55;9.38;;;12.00;99.90;;;;;;5095247;28;20047;-61
2023/04/10 01:19:21;;;;;;;12.52;10.10;;;12.00;99.90;;;;;;5094856;28;20416;-62
2023/04/10 01:21:48;;;;;;;13.65;9.55;;;12.10;99.90;;;;;;5095126;28;20043;-62
2023/04/10 01:24:15;;;;;;;12.40;9.90;;;12.10;99.90;;;;;;5095247;28;20040;-61
2023/04/10 01:26:42;;;;;;;13.80;9.77;;;12.10;99.90;;;;;;5104131;28;20130;-61
2023/04/10 01:29:09;;;;;;;11.50;9.60;;;12.10;99.90;;;;;;5115034;28;20428;-62
2023/04/10 01:31:35;;;;;;;11.70;9.77;;;12.10;99.90;;;;;;5113909;28;20047;-61
2023/04/10 01:34:02;;;;;;;11.23;9.57;;;12.10;99.90;;;;;;5113840;28;20406;-62
2023/04/10 01:36:29;;;;;;;11.65;10.25;;;12.10;99.90;;;;;;5114271;28;20055;-63
2023/04/10 01:38:56;;;;;;;13.93;10.43;;;12.10;99.90;;;;;;5104408;28;20097;-62
2023/04/10 01:41:23;;;;;;;14.60;10.05;;;12.10;99.90;;;;;;5094218;28;20040;-60
2023/04/10 01:43:50;;;;;;;12.18;9.88;;;12.10;99.90;;;;;;5093208;28;20070;-62
2023/04/10 01:46:18;;;;;;;12.40;10.13;;;12.10;99.90;;;;;;5094606;28;20043;-61
2023/04/10 01:48:45;;;;;;;12.07;9.95;;;12.10;99.90;;;;;;5092760;28;20051;-62
2023/04/10 01:51:12;;;;;;;12.85;9.93;;;12.00;99.90;;;;;;5093062;28;20051;-61
2023/04/10 01:53:39;;;;;;;13.25;9.75;;;12.00;99.90;;;;;;5093148;28;20048;-61
2023/04/10 01:56:06;;;;;;;12.05;10.02;;;12.00;99.90;;;;;;5094431;28;20044;-62
2023/04/10 01:58:39;;;;;;;12.82;10.32;;;12.00;99.90;;;;;;5092808;28;20036;-61
2023/04/10 02:01:07;;;;;;;12.68;9.82;;;12.00;99.90;;;;;;5092612;28;20058;-61
2023/04/10 02:03:39;;;;;;;14.10;9.93;;;12.10;99.90;;;;;;5092729;28;20056;-61
2023/04/10 02:06:06;;;;;;;14.77;10.07;;;12.00;99.90;;;;;;5093316;28;20040;-62
2023/04/10 02:08:34;;;;;;;13.98;9.90;;;12.00;99.90;;;;;;5092580;28;20040;-61
2023/04/10 02:11:05;;;;;;;12.80;9.63;;;12.00;99.90;;;;;;5092881;28;20036;-61
2023/04/10 02:13:32;;;;;;;12.82;9.70;;;12.00;99.90;;;;;;5094013;28;20058;-62
2023/04/10 02:15:58;;;;;;;11.63;9.57;;;12.00;99.90;;;;;;5092916;28;20085;-61
2023/04/10 02:18:27;;;;;;;14.95;9.80;;;12.00;99.90;;;;;;5093064;28;20040;-62
2023/04/10 02:20:54;;;;;;;11.77;9.30;;;12.00;99.90;;;;;;5092183;28;20487;-62
2023/04/10 02:23:21;;;;;;;10.90;8.48;;;12.00;99.90;;;;;;5093956;28;20133;-62
2023/04/10 02:25:48;;;;;;;12.25;9.35;;;12.00;99.90;;;;;;5092378;28;20395;-62
2023/04/10 02:28:15;;;;;;;11.25;9.65;;;12.00;99.90;;;;;;5093689;28;20036;-61
2023/04/10 02:30:41;;;;;;;13.30;9.43;;;12.00;99.90;;;;;;5093644;28;20491;-61
2023/04/10 02:33:10;;;;;;;14.48;9.57;;;12.00;99.90;;;;;;5092954;28;20113;-62
2023/04/10 02:35:37;;;;;;;12.70;9.15;;;11.90;99.90;;;;;;5092817;28;20058;-63
2023/04/10 02:38:04;;;;;;;14.73;9.63;;;11.90;99.90;;;;;;5093570;28;20437;-60
2023/04/10 02:40:35;;;;;;;14.38;10.10;;;11.90;99.90;;;;;;5091500;28;20135;-63
2023/04/10 02:43:12;;;;;;;13.07;8.98;;;11.80;99.90;;;;;;5092291;28;20044;-61
2023/04/10 02:45:40;;;;;;;14.05;9.43;;;11.80;99.90;;;;;;5091944;28;20127;-61
2023/04/10 02:48:12;;;;;;;10.43;8.63;;;11.80;99.90;;;;;;5092148;28;20506;-61
2023/04/10 02:50:44;;;;;;;11.15;9.02;;;11.70;99.90;;;;;;5108213;28;20081;-61
2023/04/10 02:53:11;;;;;;;14.27;8.75;;;11.70;99.90;;;;;;5112511;28;20044;-61
2023/04/10 02:55:38;;;;;;;13.85;9.02;;;11.70;99.90;;;;;;5112291;28;20036;-62
2023/04/10 02:58:05;;;;;;;12.10;9.07;;;11.70;99.90;;;;;;5112958;28;20460;-61
2023/04/10 03:00:32;;;;;;;11.07;8.45;;;11.60;99.90;;;;;;5112486;28;20060;-62
2023/04/10 03:03:31;;;;;;;11.10;8.15;;;11.60;99.90;;;;;;5092670;28;20051;-61
2023/04/10 03:05:58;;;;;;;12.73;8.77;;;11.60;99.90;;;;;;5116905;28;20436;-62
2023/04/10 03:08:29;;;;;;;13.90;8.80;;;11.50;99.90;;;;;;5116437;28;20524;-62
2023/04/10 03:10:56;;;;;;;10.07;8.45;;;11.60;99.90;;;;;;5117407;28;20040;-63
2023/04/10 03:13:23;;;;;;;11.73;8.27;;;11.60;99.90;;;;;;5117483;28;20489;-61
2023/04/10 03:15:50;;;;;;;10.63;7.93;;;11.50;99.90;;;;;;5117768;28;20051;-62
2023/04/10 03:18:17;;;;;;;12.82;7.63;;;11.50;99.90;;;;;;5113199;28;20036;-61
2023/04/10 03:20:46;;;;;;;9.52;7.50;;;11.50;99.90;;;;;;5115791;28;20043;-61
2023/04/10 03:23:13;;;;;;;11.40;7.32;;;11.50;99.90;;;;;;5117820;28;20059;-62
2023/04/10 03:25:40;;;;;;;11.50;6.80;;;11.50;99.90;;;;;;5116750;28;20459;-62
2023/04/10 03:28:07;;;;;;;8.52;6.03;;;11.50;99.90;;;;;;5116059;28;20035;-62
2023/04/10 03:30:35;;;;;;;10.13;6.97;;;11.50;99.90;;;;;;5116393;28;20044;-62
2023/04/10 03:33:02;;;;;;;7.97;6.13;;;11.50;99.90;;;;;;5117434;28;20101;-61
2023/04/10 03:35:30;;;;;;;8.88;6.07;;;11.50;99.90;;;;;;5098522;28;20131;-61
2023/04/10 03:37:57;;;;;;;10.73;6.40;;;11.50;99.90;;;;;;5116069;28;20543;-61
2023/04/10 03:40:23;;;;;;;9.88;5.88;;;11.50;99.90;;;;;;5117346;28;20089;-61
2023/04/10 03:42:50;;;;;;;11.00;6.10;;;11.50;99.90;;;;;;5109991;28;20043;-62
2023/04/10 03:45:17;;;;;;;9.65;5.55;;;11.40;99.90;;;;;;5095385;28;20040;-61
2023/04/10 03:47:44;;;;;;;9.95;5.97;;;11.40;99.90;;;;;;5095063;28;20139;-63
2023/04/10 03:50:14;;;;;;;11.43;5.78;;;11.50;99.90;;;;;;5095888;28;20372;-61
2023/04/10 03:52:48;;;;;;;12.63;5.68;;;11.40;99.90;;;;;;5095450;28;20117;-62
2023/04/10 03:55:17;;;;;;;9.02;4.85;;;11.50;99.90;;;;;;5095312;28;20452;-61
2023/04/10 03:57:45;;;;;;;13.50;4.88;;;11.50;99.90;;;;;;5095246;28;20036;-61
2023/04/10 04:00:12;;;;;;;8.82;4.30;;;11.40;99.90;;;;;;5095390;28;20040;-62
2023/04/10 04:02:51;;;;;;;7.07;4.38;;;11.40;99.90;;;;;;5095849;28;20040;-61
2023/04/10 04:05:38;;;;;;;8.23;4.68;;;11.40;99.90;;;;;;5088882;28;20058;-61
2023/04/10 04:08:40;;;;;;;7.00;4.53;;;11.40;99.90;;;;;;5014122;28;20050;-62
2023/04/10 04:11:07;;;;;;;7.75;4.78;;;11.40;99.90;;;;;;5074378;28;20066;-62
2023/04/10 04:13:52;;;;;;;8.02;4.78;;;11.40;99.90;;;;;;5096011;28;20050;-61
2023/04/10 04:16:38;;;;;;;8.02;4.50;;;11.40;99.90;;;;;;5096336;28;20474;-62
2023/04/10 04:19:26;;;;;;;12.85;4.55;;;11.40;99.90;;;;;;5095294;28;20054;-62
2023/04/10 04:22:22;;;;;;;7.43;4.30;;;11.30;99.90;;;;;;5058827;28;20052;-62
2023/04/10 04:24:55;;;;;;;7.35;4.15;;;11.20;99.90;;;;;;5096188;28;20050;-61
2023/04/10 04:27:32;;;;;;;7.68;4.20;;;11.10;99.90;;;;;;5094820;28;20101;-62
2023/04/10 04:30:07;;;;;;;8.30;4.10;;;11.10;99.90;;;;;;5096220;28;20126;-62
2023/04/10 04:32:57;;;;;;;9.90;4.90;;;11.10;99.90;;;;;;5084949;28;20056;-62
2023/04/10 04:35:40;;;;;;;8.05;3.75;;;11.00;99.90;;;;;;5094955;28;20048;-61
2023/04/10 04:38:16;;;;;;;7.25;4.03;;;11.00;99.90;;;;;;5096131;28;20033;-61
2023/04/10 04:40:55;;;;;;;5.75;4.10;;;11.00;99.90;;;;;;5079317;28;20048;-62
2023/04/10 04:43:41;;;;;;;7.53;4.28;;;11.00;99.90;;;;;;5105755;28;20054;-61
2023/04/10 04:46:23;;;;;;;6.40;4.10;;;11.00;99.90;;;;;;5114502;28;20036;-61
2023/04/10 04:49:17;;;;;;;7.70;4.35;;;10.90;99.90;;;;;;5087362;28;20632;-60
2023/04/10 04:51:48;;;;;;;6.88;3.92;;;10.90;99.90;;;;;;5094211;28;20119;-63
2023/04/10 04:54:33;;;;;;;6.55;4.22;;;10.90;99.90;;;;;;5096156;28;20394;-61
2023/04/10 04:57:32;;;;;;;6.75;3.85;;;10.90;99.90;;;;;;5072122;28;20044;-61
2023/04/10 05:00:24;;;;;;;6.20;3.65;;;10.90;99.90;;;;;;5093960;28;20044;-62
2023/04/10 05:02:51;;;;;;;7.05;3.67;;;10.90;99.90;;;;;;5095720;28;20562;-62
2023/04/10 05:05:38;;;;;;;6.43;3.90;;;10.90;99.90;;;;;;5095010;28;20075;-62
2023/04/10 05:08:32;;;;;;;6.28;4.00;;;10.90;99.90;;;;;;5094264;28;20044;-62
2023/04/10 05:11:19;;;;;;;6.88;3.92;;;10.90;99.90;;;;;;5093719;28;20067;-61
2023/04/10 05:14:15;;;;;;;;;;;10.90;99.90;;;;;;5023281;28;20085;-61
2023/04/10 05:16:59;;;;;;;4.88;3.50;;;10.90;99.90;;;;;;5094846;28;19920;-61
2023/04/10 05:20:04;;;;;;;7.40;3.70;;;10.80;99.90;;;;;;5080331;28;20121;-62
2023/04/10 05:22:56;;;;;;;5.07;3.17;;;10.80;99.90;;;;;;5093710;28;20121;-62
2023/04/10 05:25:53;;;;;;;5.03;3.03;;;10.80;99.90;;;;;;5094705;28;20047;-60
2023/04/10 05:28:40;;;;;;;5.78;2.88;;;10.80;99.90;;;;;;5094864;28;20550;-62
2023/04/10 05:31:31;;;;;;;5.25;2.63;;;10.80;99.90;;;;;;5093845;28;20054;-60
2023/04/10 05:34:20;;;;;;;5.18;3.00;;;10.90;99.90;;;;;;5092699;28;20079;-61
2023/04/10 05:37:06;;;;;;;3.40;2.70;;;10.90;99.90;;;;;;5093858;28;20048;-61
2023/04/10 05:39:55;;;;;;;5.55;2.50;;;10.90;99.90;;;;;;5097054;28;20138;-62
2023/04/10 05:42:24;;;;;;;3.58;2.40;;;10.90;99.90;;;;;;5114880;28;20055;-61
2023/04/10 05:45:02;;;;;;;4.25;2.35;;;10.90;99.90;;;;;;5113918;28;20398;-61
2023/04/10 05:47:53;;;;;;;3.30;2.40;;;10.90;99.90;;;;;;5113924;28;20466;-61
2023/04/10 05:50:40;;;;;;;3.90;2.30;;;11.00;99.90;;;;;;5097905;28;20075;-61
2023/04/10 05:53:14;;;;;;;3.35;2.50;;;11.00;99.90;;;;;;5094857;28;20446;-60
2023/04/10 05:56:02;;;;;;;3.28;2.50;;;11.10;99.90;;;;;;5093595;28;20398;-60
2023/04/10 05:58:47;;;;;;;3.88;2.60;;;11.00;99.90;;;;;;5094897;28;20062;-62
2023/04/10 06:01:33;;;;;;;3.53;2.58;;;11.00;99.90;;;;;;5094996;28;20056;-61
2023/04/10 06:04:02;;;;;;;3.40;2.83;;;11.10;99.90;;;;;;5092846;28;20379;-61
2023/04/10 06:06:29;;;;;;;4.43;2.95;;;11.10;99.90;;;;;;5094325;28;20046;-62
2023/04/10 06:08:56;;;;;;;4.00;2.90;;;11.00;99.90;;;;;;5093103;28;20398;-61
2023/04/10 06:11:23;;;;;;;6.80;3.00;;;11.10;99.90;;;;;;5094477;28;20048;-61
2023/04/10 06:13:53;;;;;;;5.97;3.20;;;11.10;99.90;;;;;;5093019;28;20040;-62
2023/04/10 06:16:25;;;;;;;3.83;3.38;;;11.10;99.90;;;;;;5093316;28;20048;-62
2023/04/10 06:18:53;;;;;;;4.22;3.25;;;11.10;99.90;;;;;;5093495;28;20051;-61
2023/04/10 06:21:20;;;;;;;6.18;3.45;;;11.10;99.90;;;;;;5092746;28;20086;-60
2023/04/10 06:23:47;;;;;;;5.55;3.40;;;11.20;99.90;;;;;;5093104;28;20089;-60
2023/04/10 06:26:14;;;;;;;4.18;3.30;;;11.20;99.90;;;;;;5093228;28;20044;-61
2023/04/10 06:28:41;;;;;;;5.28;3.80;;;11.20;99.90;;;;;;5108764;28;20047;-61
2023/04/10 06:31:08;;;;;;;4.90;4.10;;;11.20;99.90;;;;;;5113478;28;20139;-62
2023/04/10 06:33:36;;;;;;;5.30;3.40;;;11.20;99.90;;;;;;5108020;28;20051;-61
2023/04/10 06:36:05;;;;;;;5.28;3.70;;;11.20;99.90;;;;;;5092739;28;20537;-61
2023/04/10 06:38:37;;;;;;;4.47;3.63;;;11.20;99.90;;;;;;5092520;28;20640;-62
2023/04/10 06:41:05;;;;;;;4.35;3.38;;;11.20;99.90;;;;;;5092099;28;20509;-62
2023/04/10 06:43:31;;;;;;;4.00;3.08;;;11.20;99.90;;;;;;5096774;28;20036;-61
2023/04/10 06:45:58;;;;;;;4.25;3.10;;;11.20;99.90;;;;;;5114581;28;20141;-60
2023/04/10 06:48:25;;;;;;;3.40;3.10;;;11.20;99.90;;;;;;5114471;28;20048;-61
2023/04/10 06:50:52;;;;;;;4.13;3.22;;;11.20;99.90;;;;;;5114507;28;20039;-61
2023/04/10 06:53:18;;;;;;;4.05;3.30;;;11.20;99.90;;;;;;5112769;28;20451;-62
2023/04/10 06:55:45;;;;;;;5.43;3.35;;;11.30;99.90;;;;;;5114532;28;20048;-61
2023/04/10 06:58:12;;;;;;;3.92;3.00;;;11.30;99.90;;;;;;5114544;28;20113;-62
2023/04/10 07:00:39;;;;;;;4.45;3.42;;;11.30;99.90;;;;;;5114035;28;20078;-62
2023/04/10 07:03:05;;;;;;;4.40;3.00;;;11.30;99.90;;;;;;5113923;28;20040;-62
2023/04/10 07:05:32;;;;;;;4.55;3.15;;;11.30;99.90;;;;;;5114414;28;20043;-62
2023/04/10 07:07:59;;;;;;;3.58;2.85;;;11.20;99.90;;;;;;5113851;28;20096;-62
2023/04/10 07:10:26;;;;;;;4.25;2.90;;;11.30;99.90;;;;;;5113900;28;20079;-61
2023/04/10 07:12:52;;;;;;;4.18;3.00;;;11.30;99.90;;;;;;5113675;28;20453;-61
2023/04/10 07:15:19;;;;;;;5.20;3.42;;;11.30;99.90;;;;;;5113761;28;20105;-62
2023/04/10 07:17:47;;;;;;;5.38;2.90;;;11.30;99.90;;;;;;5113884;28;20040;-62
2023/04/10 07:20:13;;;;;;;5.13;2.30;;;11.30;99.90;;;;;;5113699;28;20381;-62
2023/04/10 07:22:40;;;;;;;5.90;2.67;;;11.20;99.90;;;;;;5114232;28;20413;-62
2023/04/10 07:25:07;;;;;;;3.33;2.30;;;11.20;99.90;;;;;;5113617;28;20117;-63
2023/04/10 07:27:34;;;;;;;5.65;2.22;;;11.30;99.90;;;;;;5113682;28;20036;-62
2023/04/10 07:30:00;;;;;;;4.15;2.28;;;11.30;99.90;;;;;;5113379;28;20474;-62
2023/04/10 07:32:27;;;;;;;3.40;2.20;;;11.30;99.90;;;;;;5113948;28;20043;-62
2023/04/10 07:34:54;;;;;;;4.53;2.50;;;11.30;99.90;;;;;;5112609;28;20039;-62
2023/04/10 07:37:21;;;;;;;3.88;2.30;;;11.30;99.90;;;;;;5114027;28;20036;-61
2023/04/10 07:39:48;;;;;;;6.65;2.60;;;11.20;99.90;;;;;;5113741;28;20075;-62
2023/04/10 07:42:14;;;;;;;4.30;2.50;;;11.20;99.90;;;;;;5113500;28;20042;-61
2023/04/10 07:44:41;;;;;;;4.55;2.65;;;11.20;99.90;;;;;;5098374;28;20032;-62
2023/04/10 07:47:08;;;;;;;5.90;2.60;;;11.30;99.90;;;;;;5093310;28;20041;-61
2023/04/10 07:49:35;;;;;;;4.65;2.60;;;11.30;99.90;;;;;;5095288;28;20088;-61
2023/04/10 07:52:02;;;;;;;7.00;2.85;;;11.30;99.90;;;;;;5096881;28;20139;-61
2023/04/10 07:54:29;;;;;;;7.45;2.67;;;11.30;99.90;;;;;;5096764;28;20075;-61
2023/04/10 07:56:55;;;;;;;4.63;2.40;;;11.30;99.90;;;;;;5096791;28;20051;-61
2023/04/10 07:59:22;;;;;;;5.05;2.78;;;11.30;99.90;;;;;;5096844;28;20044;-62
2023/04/10 08:01:49;;;;;;;7.13;2.78;;;11.20;99.90;;;;;;5096918;28;20036;-61
2023/04/10 08:04:16;;;;;;;5.32;2.63;;;11.20;99.90;;;;;;5096993;28;20097;-62
2023/04/10 08:06:43;;;;;;;5.40;2.22;;;11.30;99.90;;;;;;5096877;28;20036;-63
2023/04/10 08:09:09;;;;;;;5.55;2.70;;;11.20;99.90;;;;;;5095167;28;20066;-62
2023/04/10 08:11:36;;;;;;;3.58;2.50;;;11.30;99.90;;;;;;5096230;28;20097;-61
2023/04/10 08:14:05;;;;;;;6.50;2.60;;;11.30;99.90;;;;;;5096505;28;20447;-62
2023/04/10 08:16:32;;;;;;;7.60;2.50;;;11.30;99.90;;;;;;5096288;28;20043;-62
2023/04/10 08:18:59;;;;;;;4.15;2.50;;;11.40;99.90;;;;;;5095294;28;20047;-62
2023/04/10 08:21:26;;;;;;;7.25;2.38;;;11.30;99.90;;;;;;5095972;28;20044;-63
2023/04/10 08:23:53;;;;;;;4.13;2.15;;;11.40;99.90;;;;;;5094660;28;20474;-62
2023/04/10 08:26:20;;;;;;;3.85;2.10;;;11.40;99.90;;;;;;5096221;28;20048;-62
2023/04/10 08:28:48;;;;;;;4.05;2.10;;;11.50;99.90;;;;;;5096265;28;20543;-62
2023/04/10 08:31:15;;;;;;;11.90;2.17;;;11.50;99.90;;;;;;5095940;28;20036;-62
2023/04/10 08:33:42;;;;;;;2.90;2.03;;;11.50;99.90;;;;;;5096619;28;20131;-62
2023/04/10 08:36:09;;;;;;;3.10;1.70;;;11.50;99.90;;;;;;5102262;28;20104;-61
2023/04/10 08:38:36;;;;;;;5.63;2.20;;;11.50;99.90;;;;;;5116210;28;20126;-62
2023/04/10 08:41:02;;;;;;;3.03;2.20;;;11.50;99.90;;;;;;5116066;28;20036;-62
2023/04/10 08:43:29;;;;;;;2.65;1.77;;;11.50;99.90;;;;;;5112614;28;20489;-61
2023/04/10 08:45:56;;;;;;;3.35;1.60;;;11.50;99.90;;;;;;5095656;28;20043;-61
2023/04/10 08:48:23;;;;;;;3.17;1.80;;;11.60;99.90;;;;;;5095366;28;20101;-62
2023/04/10 08:50:49;;;;;;;4.05;1.70;;;11.60;99.90;;;;;;5095790;28;20039;-62
2023/04/10 08:53:16;;;;;;;3.13;1.55;;;11.60;99.90;;;;;;5094497;28;20530;-61
2023/04/10 08:55:43;;;;;;;3.67;1.50;;;11.60;99.90;;;;;;5095955;28;20055;-63
2023/04/10 08:58:10;;;;;;;2.80;1.52;;;11.60;99.90;;;;;;5096188;28;20431;-61
2023/04/10 09:00:37;;;;;;;2.88;1.40;;;11.60;99.90;;;;;;5101232;28;20081;-62
2023/04/10 09:03:04;;;;;;;2.20;1.20;;;11.60;99.90;;;;;;5116132;28;20470;-61
2023/04/10 09:05:31;;;;;;;2.95;1.30;;;11.60;99.90;;;;;;5115904;28;20047;-62
2023/04/10 09:07:57;;;;;;;2.10;1.45;;;11.60;99.90;;;;;;5115716;28;20085;-62
2023/04/10 09:10:24;;;;;;;2.33;1.02;;;11.60;99.90;;;;;;5115661;28;20035;-62
2023/04/10 09:12:51;;;;;;;4.32;1.10;;;11.70;99.90;;;;;;5116004;27;20071;-61
2023/04/10 09:15:18;;;;;;;2.38;0.90;;;11.70;99.90;;;;;;5115799;28;20043;-62
2023/04/10 09:17:44;;;;;;;2.78;1.02;;;11.70;99.90;;;;;;5115992;28;20088;-62
2023/04/10 09:20:11;;;;;;;2.22;0.90;;;11.70;99.90;;;;;;5115115;28;20039;-62
2023/04/10 09:22:38;;;;;;;1.98;0.80;;;11.70;99.90;;;;;;5115584;28;20067;-62
2023/04/10 09:25:05;;;;;;;1.20;0.60;;;11.70;99.90;;;;;;5115206;28;20478;-61
2023/04/10 09:27:32;;;;;;;2.63;0.70;;;11.70;99.90;;;;;;5115693;28;20123;-62
2023/04/10 09:29:59;;;;;;;1.35;0.60;;;11.70;99.90;;;;;;5115476;28;20503;-62
2023/04/10 09:32:25;;;;;;;2.03;0.73;;;11.80;99.90;;;;;;5115777;28;20081;-63
2023/04/10 09:34:52;;;;;;;1.30;0.50;;;11.80;99.90;;;;;;5115736;28;20466;-62
2023/04/10 09:37:21;;;;;;;2.13;0.60;;;11.90;99.90;;;;;;5115416;28;20075;-62
2023/04/10 09:39:48;;;;;;;1.30;0.60;;;11.90;99.90;;;;;;5115124;28;20387;-61
2023/04/10 09:42:15;;;;;;;2.20;0.70;;;12.00;99.90;;;;;;5114767;28;20367;-61
2023/04/10 09:44:41;;;;;;;1.13;0.50;;;12.00;99.90;;;;;;5114225;28;20047;-60
2023/04/10 09:47:08;;;;;;;1.35;0.50;;;12.00;99.90;;;;;;5115618;28;20063;-61
2023/04/10 09:49:35;;;;;;;3.15;0.70;;;12.10;99.90;;;;;;5113593;28;20402;-61
2023/04/10 09:52:02;;;;;;;1.58;0.50;;;12.10;99.90;;;;;;5115149;28;20050;-61
2023/04/10 09:54:28;;;;;;;1.30;0.40;;;12.10;99.90;;;;;;5115137;28;20047;-61
2023/04/10 09:56:55;;;;;;;1.65;0.60;;;12.10;99.90;;;;;;5114752;28;20126;-63
2023/04/10 09:59:22;;;;;;;2.13;0.50;;;12.00;99.90;;;;;;5114490;28;20085;-61
2023/04/10 10:01:49;;;;;;;1.85;0.60;;;12.00;99.90;;;;;;5114774;28;20066;-63
2023/04/10 10:04:16;;;;;;;2.75;0.50;;;12.00;99.90;;;;;;5114774;28;20046;-63
2023/04/10 10:06:43;;;;;;;1.55;0.43;;;12.00;99.90;;;;;;5114879;28;20040;-61
2023/04/10 10:09:10;;;;;;;1.30;0.43;;;12.00;99.90;;;;;;5114858;27;20039;-64
2023/04/10 10:11:36;;;;;;;1.55;0.50;;;12.00;99.90;;;;;;5114173;28;20071;-62
2023/04/10 10:14:03;;;;;;;1.55;0.47;;;12.00;99.90;;;;;;5114837;28;20051;-63
2023/04/10 10:16:30;;;;;;;1.58;0.57;;;11.90;99.90;;;;;;5098922;28;20119;-61
2023/04/10 10:18:57;;;;;;;1.33;0.40;;;12.00;99.90;;;;;;5094221;28;20471;-62
2023/04/10 10:21:23;;;;;;;1.95;0.45;;;12.00;99.90;;;;;;5093880;28;20045;-62
2023/04/10 10:23:52;;;;;;;1.35;0.40;;;12.00;99.90;;;;;;5092822;28;20039;-62
2023/04/10 10:26:23;;;;;;;0.80;0.40;;;12.00;99.90;;;;;;5092705;28;20082;-62
2023/04/10 10:28:50;;;;;;;0.95;0.40;;;12.00;99.90;;;;;;5093898;28;20123;-62
2023/04/10 10:31:17;;;;;;;1.40;0.55;;;12.00;99.90;;;;;;5093134;28;20071;-62
2023/04/10 10:33:45;;;;;;;1.02;0.50;;;12.10;99.90;;;;;;5092569;28;20048;-61
2023/04/10 10:36:12;;;;;;;1.45;0.40;;;12.10;99.90;;;;;;5098388;28;20084;-62
2023/04/10 10:38:39;;;;;;;2.55;0.40;;;12.10;99.90;;;;;;5114187;28;20047;-62
2023/04/10 10:41:06;;;;;;;1.20;0.47;;;12.10;99.90;;;;;;5114045;28;20040;-61
2023/04/10 10:43:33;;;;;;;1.02;0.52;;;12.10;99.90;;;;;;5102410;28;20070;-62
2023/04/10 10:46:00;;;;;;;1.23;0.55;;;12.10;99.90;;;;;;5093830;28;20071;-62
2023/04/10 10:48:26;;;;;;;1.55;0.60;;;12.20;99.90;;;;;;5092353;28;20048;-62
2023/04/10 10:50:55;;;;;;;2.25;0.60;;;12.20;99.90;;;;;;5094138;28;20059;-61
2023/04/10 10:53:21;;;;;;;1.20;0.50;;;12.20;99.90;;;;;;5094016;28;20040;-61
2023/04/10 10:55:48;;;;;;;2.97;0.80;;;12.20;99.90;;;;;;5093598;28;20072;-62
2023/04/10 10:58:16;;;;;;;4.30;1.10;;;12.20;99.90;;;;;;5093629;28;20540;-61
2023/04/10 11:00:43;;;;;;;3.38;1.02;;;12.30;99.90;;;;;;5093379;28;20044;-62
2023/04/10 11:03:10;;;;;;;3.15;1.10;;;12.30;99.90;;;;;;5093473;28;20048;-60
2023/04/10 11:05:37;;;;;;;3.70;1.20;;;12.40;99.90;;;;;;5093646;28;20040;-61
2023/04/10 11:08:04;;;;;;;4.03;1.10;;;12.40;99.90;;;;;;5094111;28;20037;-61
2023/04/10 11:10:31;;;;;;;6.43;1.85;;;12.40;99.90;;;;;;5093354;28;20130;-61
2023/04/10 11:13:00;;;;;;;7.65;1.88;;;12.40;99.90;;;;;;5093450;28;20098;-61
2023/04/10 11:15:27;;;;;;;6.97;1.70;;;12.40;99.90;;;;;;5094055;28;20089;-62
2023/04/10 11:17:54;;;;;;;6.55;1.73;;;12.40;99.90;;;;;;5093324;28;20043;-61
2023/04/10 11:20:24;;;;;;;6.55;1.60;;;12.40;99.90;;;;;;5093636;28;20398;-61
2023/04/10 11:22:51;;;;;;;4.97;1.70;;;12.40;99.90;;;;;;5092610;28;20043;-61
2023/04/10 11:25:18;;;;;;;8.02;2.05;;;12.40;99.90;;;;;;5097049;28;20036;-62
2023/04/10 11:27:46;;;;;;;6.25;1.90;;;12.40;99.90;;;;;;5097538;28;20410;-61
2023/04/10 11:30:13;;;;;;;6.80;2.00;;;12.50;99.90;;;;;;5097678;28;20132;-62
2023/04/10 11:32:39;;;;;;;9.88;2.38;;;12.70;99.90;;;;;;5097455;28;20050;-62
2023/04/10 11:35:06;;;;;;;6.95;1.75;;;12.80;99.90;;;;;;5097383;28;20459;-62
2023/04/10 11:37:33;;;;;;;5.97;1.80;;;12.90;99.90;;;;;;5096981;28;20047;-60
2023/04/10 11:40:00;;;;;;;6.50;2.00;;;13.10;99.90;;;;;;5112591;28;20473;-62
2023/04/10 11:42:26;;;;;;;8.82;2.13;;;13.20;99.90;;;;;;5117534;28;20113;-62
2023/04/10 11:44:53;;;;;;;11.13;2.38;;;13.40;99.90;;;;;;5111931;28;20067;-62
2023/04/10 11:47:20;;;;;;;9.25;2.35;;;13.50;99.90;;;;;;5096895;28;20105;-62
2023/04/10 11:49:46;;;;;;;12.57;2.47;;;13.60;99.90;;;;;;5095812;28;20471;-61
2023/04/10 11:52:13;;;;;;;15.05;3.58;;;13.70;99.90;;;;;;5105671;28;20390;-61
2023/04/10 11:54:40;;;;;;;11.73;2.42;;;13.70;99.90;;;;;;5117272;28;20119;-61
2023/04/10 11:57:11;;;;;;;9.27;2.50;;;13.70;99.90;;;;;;5117210;28;20063;-62
2023/04/10 11:59:38;;;;;;;9.57;2.50;;;13.70;99.90;;;;;;5116259;28;20039;-62
2023/04/10 12:02:05;;;;;;;11.27;2.63;;;13.70;99.90;;;;;;5116696;28;20474;-62
2023/04/10 12:04:32;;;;;;;12.65;2.42;;;13.80;99.90;;;;;;5117351;27;20039;-63
2023/04/10 12:06:59;;;;;;;9.23;2.80;;;13.80;99.90;;;;;;5115449;28;20569;-62
2023/04/10 12:09:26;;;;;;;16.35;3.55;;;13.90;99.90;;;;;;5116486;28;20479;-61
2023/04/10 12:11:53;;;;;;;11.45;2.92;;;14.00;99.90;;;;;;5116602;28;20036;-62
2023/04/10 12:14:20;;;;;;;10.13;2.60;;;14.00;99.90;;;;;;5116748;28;20043;-61
2023/04/10 12:16:47;;;;;;;12.00;3.10;;;14.10;99.90;;;;;;5115488;28;20127;-61
2023/04/10 12:19:14;;;;;;;11.18;2.95;;;14.10;99.90;;;;;;5116406;28;20047;-61
2023/04/10 12:21:44;;;;;;;11.60;2.70;;;14.20;99.90;;;;;;5115069;28;20047;-62
2023/04/10 12:24:10;;;;;;;11.85;2.70;;;14.30;99.90;;;;;;5116517;28;20059;-63
2023/04/10 12:26:37;;;;;;;12.77;2.85;;;14.40;99.90;;;;;;5116596;28;20363;-62
2023/04/10 12:29:06;;;;;;;16.58;3.28;;;14.40;99.90;;;;;;5116534;28;20047;-61
2023/04/10 12:31:33;;;;;;;11.32;2.60;;;14.50;99.90;;;;;;5116153;28;20046;-61
2023/04/10 12:34:00;;;;;;;12.75;2.75;;;14.50;99.90;;;;;;5115041;28;20435;-62
2023/04/10 12:36:28;;;;;;;13.10;3.05;;;14.40;99.90;;;;;;5115384;28;20039;-63
2023/04/10 12:38:55;;;;;;;12.60;3.85;;;14.30;99.90;;;;;;5116672;28;20497;-62
2023/04/10 12:41:23;;;;;;;13.18;3.15;;;14.20;99.90;;;;;;5114390;28;20039;-62
2023/04/10 12:43:50;;;;;;;13.55;3.22;;;14.20;99.90;;;;;;5094990;28;20094;-61
2023/04/10 12:46:16;;;;;;;12.73;3.15;;;14.10;99.90;;;;;;5096231;28;20033;-61
2023/04/10 12:48:43;;;;;;;10.55;2.83;;;14.10;99.90;;;;;;5095832;28;20051;-62
2023/04/10 12:51:10;;;;;;;15.75;3.80;;;14.10;99.90;;;;;;5095113;28;20107;-62
2023/04/10 12:53:37;;;;;;;13.10;3.42;;;14.20;99.90;;;;;;5116078;28;20040;-62
2023/04/10 12:56:03;;;;;;;15.65;3.25;;;14.30;99.90;;;;;;5116374;28;20122;-65